createdAt,value
2023-04-18T00:00:29.314Z,12.86
2023-04-18T00:02:56.301Z,12.91
2023-04-18T00:05:23.450Z,12.91
2023-04-18T00:07:51.408Z,12.96
2023-04-18T00:10:18.475Z,12.86
2023-04-18T00:12:45.112Z,12.72
2023-04-18T00:15:12.383Z,12.59
2023-04-18T00:17:39.705Z,12.59
2023-04-18T00:20:10.693Z,12.55
2023-04-18T00:22:42.525Z,12.53
2023-04-18T00:25:11.089Z,12.52
2023-04-18T00:27:41.202Z,12.53
2023-04-18T00:30:09.114Z,12.53
2023-04-18T00:32:37.711Z,12.43
2023-04-18T00:35:04.834Z,12.65
2023-04-18T00:37:31.493Z,12.56
2023-04-18T00:39:58.228Z,12.55
2023-04-18T00:42:27.747Z,12.39
2023-04-18T00:44:54.531Z,12.46
2023-04-18T00:47:21.286Z,12.49
2023-04-18T00:49:48.669Z,12.48
2023-04-18T00:52:18.505Z,12.62
2023-04-18T00:54:45.753Z,12.67
2023-04-18T00:57:13.228Z,12.59
2023-04-18T00:59:40.654Z,12.57
2023-04-18T01:02:08.160Z,12.58
2023-04-18T01:04:35.058Z,12.46
2023-04-18T01:07:02.883Z,12.48
2023-04-18T01:09:29.650Z,12.67
2023-04-18T01:11:56.557Z,12.61
2023-04-18T01:14:23.506Z,12.60
2023-04-18T01:16:50.179Z,12.50
2023-04-18T01:19:18.932Z,12.32
2023-04-18T01:21:45.619Z,12.21
2023-04-18T01:24:14.711Z,12.29
2023-04-18T01:26:44.130Z,12.09
2023-04-18T01:29:11.109Z,12.14
2023-04-18T01:31:39.434Z,12.15
2023-04-18T01:34:07.244Z,12.22
2023-04-18T01:36:36.031Z,12.20
2023-04-18T01:39:02.887Z,12.30
2023-04-18T01:41:32.404Z,12.29
2023-04-18T01:43:59.558Z,12.40
2023-04-18T01:46:26.423Z,12.36
2023-04-18T01:48:53.989Z,12.48
2023-04-18T01:51:21.518Z,12.46
2023-04-18T01:53:48.244Z,12.54
2023-04-18T01:56:14.869Z,12.39
2023-04-18T01:58:44.527Z,12.36
2023-04-18T02:01:12.640Z,12.26
2023-04-18T02:03:39.842Z,12.30
2023-04-18T02:06:07.286Z,12.49
2023-04-18T02:08:35.860Z,12.43
2023-04-18T02:11:05.253Z,12.50
2023-04-18T02:13:32.038Z,12.33
2023-04-18T02:15:58.755Z,12.21
2023-04-18T02:18:27.206Z,12.15
2023-04-18T02:20:53.859Z,12.17
2023-04-18T02:23:22.058Z,12.31
2023-04-18T02:25:48.799Z,12.09
2023-04-18T02:28:17.448Z,12.00
2023-04-18T02:30:44.081Z,12.19
2023-04-18T02:33:10.754Z,12.19
2023-04-18T02:35:37.980Z,12.36
2023-04-18T02:38:04.750Z,12.20
2023-04-18T02:40:31.383Z,12.23
2023-04-18T02:42:59.418Z,12.05
2023-04-18T02:45:26.066Z,12.22
2023-04-18T02:47:56.228Z,12.27
2023-04-18T02:50:24.706Z,12.29
2023-04-18T02:52:52.742Z,12.37
2023-04-18T02:55:21.957Z,12.38
2023-04-18T02:57:48.706Z,12.32
2023-04-18T03:00:38.120Z,12.23
2023-04-18T03:03:30.882Z,12.18
2023-04-18T03:06:19.250Z,12.21
2023-04-18T03:08:47.995Z,12.31
2023-04-18T03:11:15.092Z,12.32
2023-04-18T03:13:41.729Z,12.33
2023-04-18T03:16:08.647Z,12.29
2023-04-18T03:18:35.804Z,12.16
2023-04-18T03:21:02.535Z,12.26
2023-04-18T03:23:31.856Z,12.20
2023-04-18T03:26:00.936Z,12.20
2023-04-18T03:28:31.044Z,12.00
2023-04-18T03:30:58.056Z,11.93
2023-04-18T03:33:24.817Z,11.91
2023-04-18T03:35:59.299Z,11.92
2023-04-18T03:38:26.006Z,11.94
2023-04-18T03:40:53.867Z,12.00
2023-04-18T03:43:27.628Z,12.05
2023-04-18T03:45:54.516Z,11.90
2023-04-18T03:48:21.469Z,11.48
2023-04-18T03:50:48.197Z,11.51
2023-04-18T03:53:15.522Z,11.60
2023-04-18T03:55:42.430Z,11.56
2023-04-18T03:58:11.055Z,11.63
2023-04-18T04:00:39.188Z,11.70
2023-04-18T04:03:08.869Z,11.71
2023-04-18T04:05:35.819Z,11.61
2023-04-18T04:08:02.512Z,11.59
2023-04-18T04:10:29.291Z,11.46
2023-04-18T04:12:56.082Z,11.54
2023-04-18T04:15:23.285Z,11.42
2023-04-18T04:17:55.984Z,11.35
2023-04-18T04:20:26.576Z,11.30
2023-04-18T04:23:01.999Z,11.22
2023-04-18T04:25:31.047Z,11.29
2023-04-18T04:28:02.681Z,11.05
2023-04-18T04:30:33.703Z,10.95
2023-04-18T04:33:01.661Z,10.98
2023-04-18T04:35:28.539Z,10.99
2023-04-18T04:37:55.395Z,11.00
2023-04-18T04:40:29.954Z,11.01
2023-04-18T04:43:05.549Z,11.09
2023-04-18T04:45:38.952Z,11.15
2023-04-18T04:48:06.068Z,11.12
2023-04-18T04:50:41.548Z,11.18
2023-04-18T04:53:11.809Z,11.20
2023-04-18T04:55:38.843Z,11.36
2023-04-18T04:58:05.693Z,11.39
2023-04-18T05:00:59.578Z,11.29
2023-04-18T05:03:26.506Z,11.24
2023-04-18T05:05:53.723Z,11.23
2023-04-18T05:08:20.398Z,11.12
2023-04-18T05:10:47.604Z,11.27
2023-04-18T05:13:14.383Z,11.15
2023-04-18T05:15:41.030Z,11.18
2023-04-18T05:18:07.764Z,11.17
2023-04-18T05:20:34.489Z,11.18
2023-04-18T05:23:01.110Z,11.31
2023-04-18T05:25:29.669Z,11.38
2023-04-18T05:27:56.243Z,11.39
2023-04-18T05:30:22.954Z,11.46
2023-04-18T05:32:49.598Z,11.65
2023-04-18T05:35:16.537Z,11.60
2023-04-18T05:37:43.200Z,11.69
2023-04-18T05:40:10.719Z,11.71
2023-04-18T05:42:37.359Z,11.87
2023-04-18T05:45:04.273Z,11.92
2023-04-18T05:47:31.143Z,11.96
2023-04-18T05:49:57.850Z,11.76
2023-04-18T05:52:26.054Z,11.85
2023-04-18T05:54:53.061Z,11.93
2023-04-18T05:57:19.597Z,12.09
2023-04-18T05:59:46.200Z,12.09
2023-04-18T06:02:16.007Z,12.13
2023-04-18T06:04:43.097Z,12.27
2023-04-18T06:07:09.969Z,12.25
2023-04-18T06:09:36.570Z,12.31
2023-04-18T06:12:05.807Z,12.27
2023-04-18T06:14:32.451Z,12.24
2023-04-18T06:16:59.361Z,12.57
2023-04-18T06:19:26.042Z,12.50
2023-04-18T06:21:53.179Z,12.46
2023-04-18T06:24:21.172Z,12.56
2023-04-18T06:26:55.316Z,12.78
2023-04-18T06:29:23.173Z,13.00
2023-04-18T06:31:50.593Z,13.46
2023-04-18T06:34:17.263Z,13.64
2023-04-18T06:36:43.958Z,13.66
2023-04-18T06:39:10.582Z,13.79
2023-04-18T06:41:37.282Z,14.13
2023-04-18T06:44:04.621Z,14.42
2023-04-18T06:46:32.627Z,14.70
2023-04-18T06:48:59.651Z,14.96
2023-04-18T06:51:27.239Z,15.01
2023-04-18T06:53:53.922Z,15.28
2023-04-18T06:56:21.106Z,15.41
2023-04-18T06:58:48.565Z,15.53
2023-04-18T07:01:15.431Z,15.68
2023-04-18T07:03:42.224Z,15.78
2023-04-18T07:06:14.058Z,15.95
2023-04-18T07:08:43.112Z,15.36
2023-04-18T07:11:13.078Z,16.19
2023-04-18T07:13:39.769Z,16.34
2023-04-18T07:16:07.171Z,16.49
2023-04-18T07:18:37.928Z,16.65
2023-04-18T07:21:07.831Z,16.60
2023-04-18T07:23:35.604Z,16.67
2023-04-18T07:26:02.998Z,16.73
2023-04-18T07:28:33.177Z,17.05
2023-04-18T07:31:01.165Z,17.63
2023-04-18T07:33:31.554Z,18.13
2023-04-18T07:35:58.478Z,19.25
2023-04-18T07:38:27.374Z,19.82
2023-04-18T07:41:02.108Z,20.09
2023-04-18T07:43:28.726Z,20.50
2023-04-18T07:45:55.747Z,20.48
2023-04-18T07:48:22.807Z,20.28
2023-04-18T07:50:49.577Z,20.25
2023-04-18T07:53:16.229Z,19.40
2023-04-18T07:55:43.412Z,19.76
2023-04-18T07:58:09.941Z,20.18
2023-04-18T08:00:38.735Z,19.97
2023-04-18T08:03:07.702Z,20.02
2023-04-18T08:05:34.800Z,20.60
2023-04-18T08:08:01.639Z,21.33
2023-04-18T08:10:28.457Z,21.64
2023-04-18T08:12:55.197Z,21.33
2023-04-18T08:15:21.723Z,22.03
2023-04-18T08:17:49.218Z,22.30
2023-04-18T08:20:15.907Z,22.61
2023-04-18T08:22:57.395Z,23.09
2023-04-18T08:25:29.271Z,23.23
2023-04-18T08:27:55.946Z,23.23
2023-04-18T08:30:22.501Z,23.56
2023-04-18T08:32:49.838Z,23.10
2023-04-18T08:35:16.562Z,22.88
2023-04-18T08:37:43.493Z,22.67
2023-04-18T08:40:10.412Z,22.92
2023-04-18T08:42:38.612Z,22.90
2023-04-18T08:45:09.529Z,23.31
2023-04-18T08:47:36.275Z,23.36
2023-04-18T08:50:03.368Z,24.04
2023-04-18T08:52:31.997Z,24.25
2023-04-18T08:54:58.628Z,24.75
2023-04-18T08:57:28.002Z,25.13
2023-04-18T08:59:55.266Z,25.77
2023-04-18T09:02:35.022Z,26.31
2023-04-18T09:05:21.121Z,25.92
2023-04-18T09:07:49.524Z,23.80
2023-04-18T09:10:33.655Z,23.49
2023-04-18T09:13:03.415Z,23.26
2023-04-18T09:15:30.899Z,23.98
2023-04-18T09:18:00.256Z,25.07
2023-04-18T09:20:34.720Z,24.62
2023-04-18T09:23:10.533Z,24.23
2023-04-18T09:25:43.593Z,24.09
2023-04-18T09:28:23.467Z,23.59
2023-04-18T09:30:54.255Z,23.10
2023-04-18T09:33:34.354Z,23.18
2023-04-18T09:36:20.877Z,23.82
2023-04-18T09:38:48.630Z,24.06
2023-04-18T09:41:19.918Z,24.42
2023-04-18T09:43:48.562Z,24.74
2023-04-18T09:46:17.470Z,25.36
2023-04-18T09:48:44.180Z,25.81
2023-04-18T09:51:14.685Z,25.87
2023-04-18T09:53:44.650Z,26.54
2023-04-18T09:56:26.200Z,26.81
2023-04-18T09:59:00.963Z,26.93
2023-04-18T10:01:28.633Z,27.05
2023-04-18T10:03:57.103Z,27.15
2023-04-18T10:06:27.343Z,26.88
2023-04-18T10:08:55.115Z,26.94
2023-04-18T10:11:24.039Z,27.26
2023-04-18T10:13:54.497Z,26.03
2023-04-18T10:16:21.404Z,25.37
2023-04-18T10:18:49.152Z,25.05
2023-04-18T10:21:15.962Z,25.18
2023-04-18T10:23:42.593Z,25.81
2023-04-18T10:26:10.621Z,25.43
2023-04-18T10:28:49.089Z,25.40
2023-04-18T10:31:16.807Z,25.26
2023-04-18T10:34:04.027Z,25.91
2023-04-18T10:37:05.864Z,26.02
2023-04-18T10:39:48.101Z,26.87
2023-04-18T10:42:14.754Z,27.14
2023-04-18T10:44:41.620Z,26.02
2023-04-18T10:47:08.169Z,25.33
2023-04-18T10:49:37.480Z,25.60
2023-04-18T10:52:05.994Z,25.83
2023-04-18T10:54:47.020Z,26.36
2023-04-18T10:57:13.882Z,26.73
2023-04-18T10:59:48.401Z,26.42
2023-04-18T11:02:23.235Z,26.98
2023-04-18T11:04:54.693Z,28.36
2023-04-18T11:07:41.428Z,29.37
2023-04-18T11:10:09.561Z,30.34
2023-04-18T11:12:38.987Z,30.72
2023-04-18T11:15:17.790Z,31.40
2023-04-18T11:17:44.493Z,31.01
2023-04-18T11:20:15.202Z,30.01
2023-04-18T11:22:52.500Z,30.59
2023-04-18T11:25:24.040Z,31.32
2023-04-18T11:27:55.669Z,31.33
2023-04-18T11:30:22.383Z,30.20
2023-04-18T11:32:49.017Z,30.95
2023-04-18T11:35:16.382Z,31.34
2023-04-18T11:37:45.896Z,28.47
2023-04-18T11:40:14.237Z,30.57
2023-04-18T11:42:41.537Z,30.67
2023-04-18T11:45:15.879Z,31.42
2023-04-18T11:47:43.727Z,30.60
2023-04-18T11:50:13.203Z,30.94
2023-04-18T11:52:42.518Z,30.32
2023-04-18T11:55:24.640Z,30.10
2023-04-18T11:57:56.415Z,31.46
2023-04-18T12:00:37.357Z,32.23
2023-04-18T12:03:07.880Z,32.03
2023-04-18T12:05:37.536Z,32.54
2023-04-18T12:08:17.290Z,32.20
2023-04-18T12:10:50.560Z,31.85
2023-04-18T12:13:17.999Z,30.59
2023-04-18T12:15:46.598Z,30.01
2023-04-18T12:18:15.407Z,31.04
2023-04-18T12:20:50.289Z,32.66
2023-04-18T12:23:40.367Z,33.09
2023-04-18T12:26:12.596Z,33.10
2023-04-18T12:28:39.591Z,33.50
2023-04-18T12:31:08.967Z,33.95
2023-04-18T12:33:38.139Z,34.70
2023-04-18T12:36:11.127Z,35.02
2023-04-18T12:38:37.810Z,36.20
2023-04-18T12:41:05.451Z,35.76
2023-04-18T12:43:32.356Z,34.35
2023-04-18T12:45:59.629Z,33.32
2023-04-18T12:48:26.263Z,34.67
2023-04-18T12:50:54.120Z,35.72
2023-04-18T12:53:20.777Z,34.85
2023-04-18T12:55:47.380Z,34.64
2023-04-18T12:58:18.404Z,33.19
2023-04-18T13:00:44.991Z,32.69
2023-04-18T13:03:13.392Z,34.11
2023-04-18T13:05:40.558Z,35.35
2023-04-18T13:08:16.093Z,35.59
2023-04-18T13:10:44.695Z,34.80
2023-04-18T13:13:11.371Z,35.65
2023-04-18T13:15:38.181Z,34.06
2023-04-18T13:18:06.465Z,33.39
2023-04-18T13:20:34.490Z,32.03
2023-04-18T13:23:03.105Z,30.64
2023-04-18T13:25:29.734Z,30.28
2023-04-18T13:27:58.428Z,28.26
2023-04-18T13:30:25.378Z,27.58
2023-04-18T13:32:52.069Z,25.69
2023-04-18T13:35:18.833Z,25.94
2023-04-18T13:37:46.211Z,25.10
2023-04-18T13:40:13.213Z,24.20
2023-04-18T13:42:42.826Z,23.83
2023-04-18T13:45:09.786Z,24.01
2023-04-18T13:47:36.980Z,24.37
2023-04-18T13:50:04.105Z,24.56
2023-04-18T13:52:30.761Z,24.49
2023-04-18T13:54:57.394Z,24.90
2023-04-18T13:57:23.951Z,24.63
2023-04-18T13:59:50.601Z,24.92
2023-04-18T14:02:17.268Z,24.79
2023-04-18T14:04:44.278Z,24.37
2023-04-18T14:07:11.165Z,24.22
2023-04-18T14:09:37.871Z,24.38
2023-04-18T14:12:04.834Z,24.69
2023-04-18T14:14:31.587Z,24.65
2023-04-18T14:16:58.216Z,24.92
2023-04-18T14:19:25.155Z,24.58
2023-04-18T14:21:51.917Z,24.45
2023-04-18T14:24:18.680Z,24.49
2023-04-18T14:26:45.363Z,24.54
2023-04-18T14:29:12.249Z,24.30
2023-04-18T14:31:39.141Z,23.97
2023-04-18T14:34:06.550Z,23.85
2023-04-18T14:36:33.045Z,23.90
2023-04-18T14:38:59.673Z,23.74
2023-04-18T14:41:26.348Z,23.31
2023-04-18T14:43:53.313Z,23.34
2023-04-18T14:46:21.352Z,23.15
2023-04-18T14:48:48.091Z,22.96
2023-04-18T14:51:16.375Z,23.28
2023-04-18T14:53:43.417Z,22.86
2023-04-18T14:56:10.278Z,22.87
2023-04-18T14:58:37.026Z,22.99
2023-04-18T15:01:04.308Z,22.84
2023-04-18T15:03:31.159Z,22.87
2023-04-18T15:05:57.954Z,22.85
2023-04-18T15:08:24.921Z,23.01
2023-04-18T15:10:51.609Z,23.01
2023-04-18T15:13:18.399Z,23.00
2023-04-18T15:15:51.997Z,23.02
2023-04-18T15:18:18.654Z,22.86
2023-04-18T15:20:45.278Z,22.92
2023-04-18T15:23:13.742Z,22.90
2023-04-18T15:25:41.322Z,22.90
2023-04-18T15:28:08.491Z,22.94
2023-04-18T15:30:35.174Z,23.06
2023-04-18T15:33:02.386Z,23.09
2023-04-18T15:35:29.383Z,23.12
2023-04-18T15:37:57.391Z,23.23
2023-04-18T15:40:24.103Z,23.36
2023-04-18T15:42:53.440Z,23.16
2023-04-18T15:45:20.886Z,23.16
2023-04-18T15:47:48.086Z,23.18
2023-04-18T15:50:16.253Z,23.16
2023-04-18T15:52:43.289Z,23.15
2023-04-18T15:55:13.437Z,23.30
2023-04-18T15:57:41.567Z,23.15
2023-04-18T16:00:29.380Z,23.12
2023-04-18T16:02:56.273Z,23.02
2023-04-18T16:05:23.020Z,23.00
2023-04-18T16:07:49.751Z,22.97
2023-04-18T16:10:16.312Z,23.13
2023-04-18T16:12:42.996Z,23.12
2023-04-18T16:15:10.398Z,23.26
2023-04-18T16:17:37.786Z,23.28
2023-04-18T16:20:09.353Z,23.24
2023-04-18T16:22:37.248Z,23.19
2023-04-18T16:25:04.857Z,23.54
2023-04-18T16:27:32.228Z,23.75
2023-04-18T16:29:58.805Z,23.77
2023-04-18T16:32:25.622Z,23.72
2023-04-18T16:34:52.278Z,23.69
2023-04-18T16:37:19.226Z,23.44
2023-04-18T16:39:45.871Z,23.68
2023-04-18T16:42:15.335Z,23.74
2023-04-18T16:44:44.686Z,23.60
2023-04-18T16:47:11.296Z,23.65
2023-04-18T16:49:37.957Z,23.44
2023-04-18T16:52:04.651Z,23.45
2023-04-18T16:54:31.421Z,23.38
2023-04-18T16:56:58.368Z,23.12
2023-04-18T16:59:25.181Z,22.99
2023-04-18T17:01:51.931Z,22.63
2023-04-18T17:04:18.695Z,22.46
2023-04-18T17:06:45.366Z,22.31
2023-04-18T17:09:14.553Z,22.24
2023-04-18T17:11:41.632Z,22.03
2023-04-18T17:14:09.032Z,21.95
2023-04-18T17:16:39.951Z,21.74
2023-04-18T17:19:07.867Z,21.63
2023-04-18T17:21:35.739Z,21.52
2023-04-18T17:24:03.972Z,21.17
2023-04-18T17:26:34.694Z,21.15
2023-04-18T17:29:03.213Z,20.95
2023-04-18T17:31:33.100Z,20.59
2023-04-18T17:34:00.373Z,20.28
2023-04-18T17:36:27.201Z,20.16
2023-04-18T17:38:54.177Z,20.02
2023-04-18T17:41:24.034Z,19.70
2023-04-18T17:43:51.016Z,19.43
2023-04-18T17:46:17.991Z,19.34
2023-04-18T17:48:44.666Z,19.27
2023-04-18T17:51:11.318Z,19.02
2023-04-18T17:53:38.054Z,19.22
2023-04-18T17:56:05.095Z,19.04
2023-04-18T17:58:32.180Z,19.12
2023-04-18T18:00:58.843Z,18.86
2023-04-18T18:03:27.970Z,18.98
2023-04-18T18:05:57.533Z,18.85
2023-04-18T18:08:24.414Z,18.86
2023-04-18T18:10:50.967Z,18.68
2023-04-18T18:13:17.585Z,18.66
2023-04-18T18:15:44.161Z,18.66
2023-04-18T18:18:10.968Z,18.37
2023-04-18T18:20:37.659Z,18.52
2023-04-18T18:23:08.981Z,18.33
2023-04-18T18:25:37.528Z,18.28
2023-04-18T18:28:04.309Z,18.25
2023-04-18T18:30:30.983Z,18.30
2023-04-18T18:32:57.810Z,18.27
2023-04-18T18:35:24.526Z,18.25
2023-04-18T18:37:51.214Z,18.13
2023-04-18T18:40:17.950Z,18.11
2023-04-18T18:42:45.013Z,18.10
2023-04-18T18:45:12.041Z,18.04
2023-04-18T18:47:39.971Z,17.95
2023-04-18T18:50:07.529Z,17.64
2023-04-18T18:52:37.088Z,17.84
2023-04-18T18:55:04.541Z,17.80
2023-04-18T18:57:31.165Z,17.79
2023-04-18T18:59:57.796Z,17.71
2023-04-18T19:02:24.504Z,17.77
2023-04-18T19:04:51.599Z,17.62
2023-04-18T19:07:18.384Z,17.46
2023-04-18T19:09:46.361Z,17.49
2023-04-18T19:12:13.020Z,17.37
2023-04-18T19:14:42.295Z,17.17
2023-04-18T19:17:09.412Z,17.16
2023-04-18T19:19:38.337Z,17.29
2023-04-18T19:22:06.387Z,16.95
2023-04-18T19:24:32.983Z,17.13
2023-04-18T19:26:59.785Z,17.23
2023-04-18T19:29:26.820Z,16.69
2023-04-18T19:31:53.540Z,16.87
2023-04-18T19:34:21.832Z,16.73
2023-04-18T19:36:48.808Z,16.99
2023-04-18T19:39:16.430Z,16.77
2023-04-18T19:41:43.193Z,16.87
2023-04-18T19:44:09.949Z,16.77
2023-04-18T19:46:36.625Z,17.01
2023-04-18T19:49:04.101Z,17.13
2023-04-18T19:51:31.367Z,17.12
2023-04-18T19:53:58.060Z,16.70
2023-04-18T19:56:24.736Z,16.99
2023-04-18T19:58:51.486Z,16.67
2023-04-18T20:01:20.155Z,16.48
2023-04-18T20:03:47.832Z,16.77
2023-04-18T20:06:14.618Z,16.32
2023-04-18T20:08:41.656Z,16.68
2023-04-18T20:11:10.364Z,16.50
2023-04-18T20:13:37.585Z,16.25
2023-04-18T20:16:08.804Z,15.99
2023-04-18T20:18:37.757Z,15.86
2023-04-18T20:21:07.038Z,15.94
2023-04-18T20:23:34.582Z,15.89
2023-04-18T20:26:01.227Z,15.88
2023-04-18T20:28:27.904Z,15.77
2023-04-18T20:30:54.646Z,15.77
2023-04-18T20:33:21.347Z,15.68
2023-04-18T20:35:47.977Z,15.76
2023-04-18T20:38:14.909Z,15.64
2023-04-18T20:40:45.011Z,15.55
2023-04-18T20:43:12.701Z,15.66
2023-04-18T20:45:42.951Z,15.64
2023-04-18T20:48:10.024Z,15.64
2023-04-18T20:50:36.665Z,15.43
2023-04-18T20:53:03.973Z,15.64
2023-04-18T20:55:30.969Z,15.30
2023-04-18T20:57:58.544Z,15.46
2023-04-18T21:00:25.383Z,15.42
2023-04-18T21:02:52.257Z,15.68
2023-04-18T21:05:19.148Z,15.44
2023-04-18T21:07:46.070Z,15.43
2023-04-18T21:10:12.870Z,15.53
2023-04-18T21:12:39.480Z,15.34
2023-04-18T21:15:06.765Z,15.49
2023-04-18T21:17:33.658Z,15.33
2023-04-18T21:20:00.446Z,15.35
2023-04-18T21:22:27.152Z,15.34
2023-04-18T21:24:53.749Z,15.26
2023-04-18T21:27:20.397Z,15.29
2023-04-18T21:29:47.884Z,15.16
2023-04-18T21:32:14.636Z,14.71
2023-04-18T21:34:41.329Z,14.85
2023-04-18T21:37:07.983Z,14.97
2023-04-18T21:39:34.654Z,14.60
2023-04-18T21:42:01.903Z,14.77
2023-04-18T21:44:28.678Z,14.56
2023-04-18T21:46:56.437Z,14.63
2023-04-18T21:49:23.202Z,14.25
2023-04-18T21:51:50.046Z,14.33
2023-04-18T21:54:16.899Z,14.23
2023-04-18T21:56:43.662Z,13.84
2023-04-18T21:59:10.585Z,13.69
2023-04-18T22:01:38.277Z,13.55
2023-04-18T22:04:06.006Z,13.42
2023-04-18T22:06:33.379Z,13.26
2023-04-18T22:09:00.982Z,13.18
2023-04-18T22:11:28.484Z,13.26
2023-04-18T22:13:55.218Z,13.29
2023-04-18T22:16:22.098Z,13.23
2023-04-18T22:18:51.523Z,13.10
2023-04-18T22:21:18.368Z,13.16
2023-04-18T22:23:45.007Z,13.06
2023-04-18T22:26:11.763Z,12.82
2023-04-18T22:28:38.579Z,12.79
2023-04-18T22:31:05.642Z,12.61
2023-04-18T22:33:32.335Z,12.63
2023-04-18T22:35:59.138Z,12.74
2023-04-18T22:38:25.914Z,12.48
2023-04-18T22:40:52.759Z,12.28
2023-04-18T22:43:22.756Z,12.65
2023-04-18T22:45:49.993Z,12.59
2023-04-18T22:48:17.331Z,12.67
2023-04-18T22:50:44.243Z,12.48
2023-04-18T22:53:11.298Z,12.39
2023-04-18T22:55:40.397Z,12.35
2023-04-18T22:58:07.981Z,12.08
2023-04-18T23:00:35.103Z,12.31
2023-04-18T23:03:02.417Z,12.27
2023-04-18T23:05:29.664Z,12.44
2023-04-18T23:07:58.276Z,12.38
2023-04-18T23:10:26.417Z,12.35
2023-04-18T23:12:53.378Z,12.61
2023-04-18T23:15:22.758Z,12.66
2023-04-18T23:17:52.148Z,12.80
2023-04-18T23:20:19.955Z,12.95
2023-04-18T23:22:47.545Z,12.86
2023-04-18T23:25:14.184Z,12.98
2023-04-18T23:27:41.010Z,13.02
2023-04-18T23:30:08.147Z,13.03
2023-04-18T23:32:34.782Z,13.28
2023-04-18T23:35:04.376Z,13.34
2023-04-18T23:37:31.492Z,13.18
2023-04-18T23:39:59.886Z,13.21
2023-04-18T23:42:26.561Z,13.34
2023-04-18T23:44:53.277Z,13.16
2023-04-18T23:47:20.074Z,12.95
2023-04-18T23:49:46.930Z,12.98
2023-04-18T23:52:13.763Z,13.10
2023-04-18T23:54:41.094Z,13.14
2023-04-18T23:57:08.081Z,12.93
2023-04-18T23:59:34.753Z,12.95
